Terminal Aerodrome Forecast
Issued by NWS Lake Charles, LA

Home | Current Version | Previous Version | Text Only | Print | Product List | Glossary On
Versions: 1 2 3 4 5 6 7 8 9 10 11 12 13 14 15 16 17 18 19 20 21 22 23 24 25 26 27 28 29 30 31 32 33 34
000
FTUS44 KLCH 192337
TAFAEX
TAF
KAEX 192337Z 2000/2024 10006KT P6SM -RA FEW015 SCT035 OVC100
     FM200200 11007KT P6SM VCSH SCT025 BKN250
     FM200800 10006KT P6SM SCT010
      TEMPO 2011/2014 BKN010
     FM201600 11010KT P6SM VCSH FEW015 SCT025 OVC060 PROB30
      2018/2024 3SM SHRA SCT020 OVC040=

USA.gov is the U.S. government's official web portal to all federal, state and local government web resources and services.